sensor_id;sensor_type;location;lat;lon;timestamp;temperature;humidity
53073;DHT22;38955;48.916;2.336;2023-09-30T00:01:58;16.10;98.70
53073;DHT22;38955;48.916;2.336;2023-09-30T00:04:02;16.10;98.90
53073;DHT22;38955;48.916;2.336;2023-09-30T00:06:07;16.10;99.10
53073;DHT22;38955;48.916;2.336;2023-09-30T00:08:09;16.10;99.00
53073;DHT22;38955;48.916;2.336;2023-09-30T00:10:13;16.10;99.10
53073;DHT22;38955;48.916;2.336;2023-09-30T00:12:16;16.10;98.90
53073;DHT22;38955;48.916;2.336;2023-09-30T00:14:18;16.00;98.90
53073;DHT22;38955;48.916;2.336;2023-09-30T00:16:20;16.10;98.90
53073;DHT22;38955;48.916;2.336;2023-09-30T00:18:22;16.00;98.80
53073;DHT22;38955;48.916;2.336;2023-09-30T00:20:25;16.00;98.80
53073;DHT22;38955;48.916;2.336;2023-09-30T00:22:27;16.00;98.90
53073;DHT22;38955;48.916;2.336;2023-09-30T00:24:30;16.00;98.90
53073;DHT22;38955;48.916;2.336;2023-09-30T00:26:34;15.90;98.90
53073;DHT22;38955;48.916;2.336;2023-09-30T00:28:36;16.00;99.40
53073;DHT22;38955;48.916;2.336;2023-09-30T00:30:38;15.90;98.90
53073;DHT22;38955;48.916;2.336;2023-09-30T00:32:41;15.90;99.10
53073;DHT22;38955;48.916;2.336;2023-09-30T00:34:43;15.90;99.00
53073;DHT22;38955;48.916;2.336;2023-09-30T00:36:45;15.90;99.10
53073;DHT22;38955;48.916;2.336;2023-09-30T00:38:47;15.80;99.00
53073;DHT22;38955;48.916;2.336;2023-09-30T00:40:49;15.80;99.20
53073;DHT22;38955;48.916;2.336;2023-09-30T00:42:53;15.80;99.10
53073;DHT22;38955;48.916;2.336;2023-09-30T00:44:55;15.80;99.20
53073;DHT22;38955;48.916;2.336;2023-09-30T00:46:57;15.80;99.30
53073;DHT22;38955;48.916;2.336;2023-09-30T00:49:01;15.80;99.30
53073;DHT22;38955;48.916;2.336;2023-09-30T00:51:04;15.70;99.40
53073;DHT22;38955;48.916;2.336;2023-09-30T00:53:09;15.70;99.30
53073;DHT22;38955;48.916;2.336;2023-09-30T00:55:12;15.70;99.10
53073;DHT22;38955;48.916;2.336;2023-09-30T00:57:15;15.70;99.10
53073;DHT22;38955;48.916;2.336;2023-09-30T00:59:18;15.70;99.30
53073;DHT22;38955;48.916;2.336;2023-09-30T01:01:21;15.70;99.30
53073;DHT22;38955;48.916;2.336;2023-09-30T01:03:23;15.60;99.30
53073;DHT22;38955;48.916;2.336;2023-09-30T01:05:26;15.70;99.50
53073;DHT22;38955;48.916;2.336;2023-09-30T01:07:28;15.70;99.50
53073;DHT22;38955;48.916;2.336;2023-09-30T01:09:30;15.70;99.40
53073;DHT22;38955;48.916;2.336;2023-09-30T01:11:32;15.70;99.40
53073;DHT22;38955;48.916;2.336;2023-09-30T01:13:36;15.70;99.40
53073;DHT22;38955;48.916;2.336;2023-09-30T01:15:39;15.70;99.50
53073;DHT22;38955;48.916;2.336;2023-09-30T01:17:42;15.80;99.40
53073;DHT22;38955;48.916;2.336;2023-09-30T01:19:44;15.70;99.40
53073;DHT22;38955;48.916;2.336;2023-09-30T01:21:47;15.70;99.60
53073;DHT22;38955;48.916;2.336;2023-09-30T01:23:50;15.70;99.50
53073;DHT22;38955;48.916;2.336;2023-09-30T01:25:52;15.70;99.60
53073;DHT22;38955;48.916;2.336;2023-09-30T01:27:54;15.70;99.50
53073;DHT22;38955;48.916;2.336;2023-09-30T01:29:56;15.70;99.50
53073;DHT22;38955;48.916;2.336;2023-09-30T01:32:00;15.60;99.80
53073;DHT22;38955;48.916;2.336;2023-09-30T01:34:03;15.60;99.80
53073;DHT22;38955;48.916;2.336;2023-09-30T01:36:06;15.50;99.80
53073;DHT22;38955;48.916;2.336;2023-09-30T01:38:10;15.50;99.90
53073;DHT22;38955;48.916;2.336;2023-09-30T01:40:12;15.50;99.90
53073;DHT22;38955;48.916;2.336;2023-09-30T01:42:14;15.40;99.90
53073;DHT22;38955;48.916;2.336;2023-09-30T01:44:16;15.40;99.90
53073;DHT22;38955;48.916;2.336;2023-09-30T01:46:19;15.40;99.90
53073;DHT22;38955;48.916;2.336;2023-09-30T01:48:21;15.30;99.90
53073;DHT22;38955;48.916;2.336;2023-09-30T01:50:23;15.30;99.90
53073;DHT22;38955;48.916;2.336;2023-09-30T01:52:26;15.30;99.90
53073;DHT22;38955;48.916;2.336;2023-09-30T01:54:29;15.30;99.90
53073;DHT22;38955;48.916;2.336;2023-09-30T01:56:32;15.30;99.90
53073;DHT22;38955;48.916;2.336;2023-09-30T01:58:34;15.20;99.90
53073;DHT22;38955;48.916;2.336;2023-09-30T02:00:36;15.20;99.90
53073;DHT22;38955;48.916;2.336;2023-09-30T02:02:39;15.20;99.90
53073;DHT22;38955;48.916;2.336;2023-09-30T02:04:41;15.30;99.90
53073;DHT22;38955;48.916;2.336;2023-09-30T02:06:43;15.20;99.90
53073;DHT22;38955;48.916;2.336;2023-09-30T02:08:46;15.20;99.90
53073;DHT22;38955;48.916;2.336;2023-09-30T02:10:49;15.20;99.90
53073;DHT22;38955;48.916;2.336;2023-09-30T02:12:52;15.20;99.90
53073;DHT22;38955;48.916;2.336;2023-09-30T02:14:55;15.20;99.90
53073;DHT22;38955;48.916;2.336;2023-09-30T02:16:57;15.20;99.90
53073;DHT22;38955;48.916;2.336;2023-09-30T02:18:59;15.20;99.90
53073;DHT22;38955;48.916;2.336;2023-09-30T02:21:01;15.30;99.90
53073;DHT22;38955;48.916;2.336;2023-09-30T02:23:04;15.30;99.90
53073;DHT22;38955;48.916;2.336;2023-09-30T02:25:08;15.20;99.90
53073;DHT22;38955;48.916;2.336;2023-09-30T02:27:12;15.20;99.90
53073;DHT22;38955;48.916;2.336;2023-09-30T02:29:14;15.20;99.90
53073;DHT22;38955;48.916;2.336;2023-09-30T02:31:16;15.10;99.90
53073;DHT22;38955;48.916;2.336;2023-09-30T02:33:19;15.20;99.90
53073;DHT22;38955;48.916;2.336;2023-09-30T02:35:22;15.20;99.90
53073;DHT22;38955;48.916;2.336;2023-09-30T02:37:25;15.10;99.90
53073;DHT22;38955;48.916;2.336;2023-09-30T02:39:29;15.10;99.90
53073;DHT22;38955;48.916;2.336;2023-09-30T02:41:31;15.10;99.90
53073;DHT22;38955;48.916;2.336;2023-09-30T02:43:35;15.20;99.90
53073;DHT22;38955;48.916;2.336;2023-09-30T02:45:37;15.20;99.90
53073;DHT22;38955;48.916;2.336;2023-09-30T02:47:39;15.10;99.90
53073;DHT22;38955;48.916;2.336;2023-09-30T02:49:42;15.10;99.90
53073;DHT22;38955;48.916;2.336;2023-09-30T02:51:44;15.10;99.90
53073;DHT22;38955;48.916;2.336;2023-09-30T02:53:46;15.10;99.90
53073;DHT22;38955;48.916;2.336;2023-09-30T02:55:50;15.10;99.90
53073;DHT22;38955;48.916;2.336;2023-09-30T02:57:57;15.10;99.90
53073;DHT22;38955;48.916;2.336;2023-09-30T03:00:02;15.20;99.90
53073;DHT22;38955;48.916;2.336;2023-09-30T03:02:14;15.20;99.80
53073;DHT22;38955;48.916;2.336;2023-09-30T03:04:17;15.20;99.80
53073;DHT22;38955;48.916;2.336;2023-09-30T03:06:21;15.20;99.40
53073;DHT22;38955;48.916;2.336;2023-09-30T03:08:23;15.10;99.40
53073;DHT22;38955;48.916;2.336;2023-09-30T03:10:27;15.10;99.70
53073;DHT22;38955;48.916;2.336;2023-09-30T03:12:29;15.00;99.50
53073;DHT22;38955;48.916;2.336;2023-09-30T03:14:31;15.00;99.90
53073;DHT22;38955;48.916;2.336;2023-09-30T03:16:35;15.00;99.80
53073;DHT22;38955;48.916;2.336;2023-09-30T03:18:40;15.00;99.90
53073;DHT22;38955;48.916;2.336;2023-09-30T03:20:43;15.00;99.90
53073;DHT22;38955;48.916;2.336;2023-09-30T03:22:45;15.00;99.90
53073;DHT22;38955;48.916;2.336;2023-09-30T03:24:50;15.00;99.90
53073;DHT22;38955;48.916;2.336;2023-09-30T03:26:52;15.00;99.90
53073;DHT22;38955;48.916;2.336;2023-09-30T03:28:54;14.90;99.90
53073;DHT22;38955;48.916;2.336;2023-09-30T03:30:56;14.90;99.90
53073;DHT22;38955;48.916;2.336;2023-09-30T03:33:00;15.00;99.90
53073;DHT22;38955;48.916;2.336;2023-09-30T03:35:03;14.90;99.90
53073;DHT22;38955;48.916;2.336;2023-09-30T03:37:07;14.90;99.90
53073;DHT22;38955;48.916;2.336;2023-09-30T03:39:09;14.90;99.90
53073;DHT22;38955;48.916;2.336;2023-09-30T03:41:16;14.90;99.90
53073;DHT22;38955;48.916;2.336;2023-09-30T03:43:25;15.00;99.90
53073;DHT22;38955;48.916;2.336;2023-09-30T03:45:27;14.90;99.90
53073;DHT22;38955;48.916;2.336;2023-09-30T03:47:31;14.90;99.90
53073;DHT22;38955;48.916;2.336;2023-09-30T03:49:35;14.90;99.90
53073;DHT22;38955;48.916;2.336;2023-09-30T03:51:37;14.80;99.90
53073;DHT22;38955;48.916;2.336;2023-09-30T03:53:39;14.80;99.90
53073;DHT22;38955;48.916;2.336;2023-09-30T03:55:42;14.80;99.90
53073;DHT22;38955;48.916;2.336;2023-09-30T03:57:46;14.70;99.90
53073;DHT22;38955;48.916;2.336;2023-09-30T03:59:50;14.70;99.90
53073;DHT22;38955;48.916;2.336;2023-09-30T04:01:52;14.80;99.90
53073;DHT22;38955;48.916;2.336;2023-09-30T04:03:55;14.70;99.90
53073;DHT22;38955;48.916;2.336;2023-09-30T04:06:01;14.70;99.90
53073;DHT22;38955;48.916;2.336;2023-09-30T04:08:07;14.70;99.90
53073;DHT22;38955;48.916;2.336;2023-09-30T04:10:10;14.60;99.90
53073;DHT22;38955;48.916;2.336;2023-09-30T04:12:12;14.60;99.90
53073;DHT22;38955;48.916;2.336;2023-09-30T04:14:15;14.50;99.90
53073;DHT22;38955;48.916;2.336;2023-09-30T04:16:19;14.50;99.90
53073;DHT22;38955;48.916;2.336;2023-09-30T04:18:21;14.50;99.90
53073;DHT22;38955;48.916;2.336;2023-09-30T04:20:25;14.50;99.90
53073;DHT22;38955;48.916;2.336;2023-09-30T04:22:30;14.50;99.90
53073;DHT22;38955;48.916;2.336;2023-09-30T04:24:35;14.40;99.90
53073;DHT22;38955;48.916;2.336;2023-09-30T04:26:37;14.40;99.90
53073;DHT22;38955;48.916;2.336;2023-09-30T04:28:39;14.40;99.90
53073;DHT22;38955;48.916;2.336;2023-09-30T04:30:42;14.40;99.90
53073;DHT22;38955;48.916;2.336;2023-09-30T04:32:44;14.40;99.90
53073;DHT22;38955;48.916;2.336;2023-09-30T04:34:46;14.40;99.90
53073;DHT22;38955;48.916;2.336;2023-09-30T04:36:48;14.50;99.90
53073;DHT22;38955;48.916;2.336;2023-09-30T04:38:52;14.50;99.90
53073;DHT22;38955;48.916;2.336;2023-09-30T04:40:54;14.50;99.90
53073;DHT22;38955;48.916;2.336;2023-09-30T04:42:56;14.50;99.90
53073;DHT22;38955;48.916;2.336;2023-09-30T04:45:00;14.60;99.90
53073;DHT22;38955;48.916;2.336;2023-09-30T04:47:03;14.60;99.90
53073;DHT22;38955;48.916;2.336;2023-09-30T04:49:07;14.60;99.90
53073;DHT22;38955;48.916;2.336;2023-09-30T04:51:09;14.60;99.90
53073;DHT22;38955;48.916;2.336;2023-09-30T04:53:12;14.60;99.90
53073;DHT22;38955;48.916;2.336;2023-09-30T04:55:16;14.60;99.90
53073;DHT22;38955;48.916;2.336;2023-09-30T04:57:18;14.60;99.90
53073;DHT22;38955;48.916;2.336;2023-09-30T04:59:21;14.70;99.90
53073;DHT22;38955;48.916;2.336;2023-09-30T05:01:27;14.70;99.90
53073;DHT22;38955;48.916;2.336;2023-09-30T05:03:30;14.70;99.90
53073;DHT22;38955;48.916;2.336;2023-09-30T05:05:32;14.60;99.90
53073;DHT22;38955;48.916;2.336;2023-09-30T05:07:34;14.60;99.90
53073;DHT22;38955;48.916;2.336;2023-09-30T05:09:37;14.50;99.90
53073;DHT22;38955;48.916;2.336;2023-09-30T05:11:41;14.50;99.90
53073;DHT22;38955;48.916;2.336;2023-09-30T05:13:43;14.50;99.90
53073;DHT22;38955;48.916;2.336;2023-09-30T05:15:45;14.50;99.90
53073;DHT22;38955;48.916;2.336;2023-09-30T05:17:49;14.60;99.90
53073;DHT22;38955;48.916;2.336;2023-09-30T05:19:51;14.60;99.90
53073;DHT22;38955;48.916;2.336;2023-09-30T05:21:53;14.60;99.90
53073;DHT22;38955;48.916;2.336;2023-09-30T05:23:55;14.60;99.90
53073;DHT22;38955;48.916;2.336;2023-09-30T05:25:58;14.60;99.90
53073;DHT22;38955;48.916;2.336;2023-09-30T05:28:03;14.50;99.90
53073;DHT22;38955;48.916;2.336;2023-09-30T05:30:09;14.50;99.90
53073;DHT22;38955;48.916;2.336;2023-09-30T05:32:15;14.50;99.90
53073;DHT22;38955;48.916;2.336;2023-09-30T05:34:17;14.50;99.90
53073;DHT22;38955;48.916;2.336;2023-09-30T05:36:19;14.40;99.90
53073;DHT22;38955;48.916;2.336;2023-09-30T05:38:22;14.40;99.90
53073;DHT22;38955;48.916;2.336;2023-09-30T05:40:25;14.30;99.90
53073;DHT22;38955;48.916;2.336;2023-09-30T05:42:31;14.40;99.90
53073;DHT22;38955;48.916;2.336;2023-09-30T05:44:36;14.30;99.90
53073;DHT22;38955;48.916;2.336;2023-09-30T05:46:38;14.30;99.90
53073;DHT22;38955;48.916;2.336;2023-09-30T05:48:40;14.30;99.90
53073;DHT22;38955;48.916;2.336;2023-09-30T05:50:42;14.20;99.90
53073;DHT22;38955;48.916;2.336;2023-09-30T05:52:46;14.20;99.90
53073;DHT22;38955;48.916;2.336;2023-09-30T05:54:49;14.30;99.90
53073;DHT22;38955;48.916;2.336;2023-09-30T05:56:52;14.30;99.90
53073;DHT22;38955;48.916;2.336;2023-09-30T05:58:54;14.30;99.90
53073;DHT22;38955;48.916;2.336;2023-09-30T06:00:58;14.30;99.90
53073;DHT22;38955;48.916;2.336;2023-09-30T06:03:02;14.20;99.90
53073;DHT22;38955;48.916;2.336;2023-09-30T06:05:08;14.20;99.90
53073;DHT22;38955;48.916;2.336;2023-09-30T06:07:11;14.20;99.90
53073;DHT22;38955;48.916;2.336;2023-09-30T06:09:13;14.10;99.90
53073;DHT22;38955;48.916;2.336;2023-09-30T06:11:19;14.20;99.90
53073;DHT22;38955;48.916;2.336;2023-09-30T06:13:21;14.20;99.90
53073;DHT22;38955;48.916;2.336;2023-09-30T06:15:23;14.20;99.90
53073;DHT22;38955;48.916;2.336;2023-09-30T06:17:30;14.20;99.90
53073;DHT22;38955;48.916;2.336;2023-09-30T06:19:33;14.30;99.90
53073;DHT22;38955;48.916;2.336;2023-09-30T06:21:37;14.40;99.90
53073;DHT22;38955;48.916;2.336;2023-09-30T06:23:41;14.40;99.90
53073;DHT22;38955;48.916;2.336;2023-09-30T06:25:45;14.40;99.90
53073;DHT22;38955;48.916;2.336;2023-09-30T06:27:48;14.40;99.90
53073;DHT22;38955;48.916;2.336;2023-09-30T06:29:50;14.40;99.90
53073;DHT22;38955;48.916;2.336;2023-09-30T06:31:52;14.40;99.90
53073;DHT22;38955;48.916;2.336;2023-09-30T06:33:55;14.30;99.90
53073;DHT22;38955;48.916;2.336;2023-09-30T06:36:00;14.40;99.90
53073;DHT22;38955;48.916;2.336;2023-09-30T06:38:04;14.40;99.90
53073;DHT22;38955;48.916;2.336;2023-09-30T06:40:09;14.50;99.90
53073;DHT22;38955;48.916;2.336;2023-09-30T06:42:13;14.50;99.90
53073;DHT22;38955;48.916;2.336;2023-09-30T06:44:15;14.60;99.90
53073;DHT22;38955;48.916;2.336;2023-09-30T06:46:18;14.70;99.90
53073;DHT22;38955;48.916;2.336;2023-09-30T06:48:21;14.60;99.90
53073;DHT22;38955;48.916;2.336;2023-09-30T06:50:24;14.70;99.90
53073;DHT22;38955;48.916;2.336;2023-09-30T06:52:26;14.80;99.90
53073;DHT22;38955;48.916;2.336;2023-09-30T06:54:30;14.80;99.90
53073;DHT22;38955;48.916;2.336;2023-09-30T06:56:32;14.80;99.90
53073;DHT22;38955;48.916;2.336;2023-09-30T06:58:35;14.80;99.70
53073;DHT22;38955;48.916;2.336;2023-09-30T07:00:37;14.80;99.90
53073;DHT22;38955;48.916;2.336;2023-09-30T07:02:40;14.80;99.80
53073;DHT22;38955;48.916;2.336;2023-09-30T07:04:43;14.80;99.90
53073;DHT22;38955;48.916;2.336;2023-09-30T07:06:47;14.80;99.90
53073;DHT22;38955;48.916;2.336;2023-09-30T07:08:49;14.80;99.90
53073;DHT22;38955;48.916;2.336;2023-09-30T07:10:51;14.80;99.90
53073;DHT22;38955;48.916;2.336;2023-09-30T07:12:55;14.90;99.70
53073;DHT22;38955;48.916;2.336;2023-09-30T07:14:58;15.00;99.70
53073;DHT22;38955;48.916;2.336;2023-09-30T07:17:00;15.00;99.60
53073;DHT22;38955;48.916;2.336;2023-09-30T07:19:02;15.10;99.70
53073;DHT22;38955;48.916;2.336;2023-09-30T07:21:05;15.20;99.50
53073;DHT22;38955;48.916;2.336;2023-09-30T07:23:09;15.20;99.30
53073;DHT22;38955;48.916;2.336;2023-09-30T07:25:20;15.30;99.30
53073;DHT22;38955;48.916;2.336;2023-09-30T07:27:22;15.40;99.00
53073;DHT22;38955;48.916;2.336;2023-09-30T07:29:29;15.30;99.00
53073;DHT22;38955;48.916;2.336;2023-09-30T07:31:34;15.40;99.10
53073;DHT22;38955;48.916;2.336;2023-09-30T07:33:37;15.50;99.00
53073;DHT22;38955;48.916;2.336;2023-09-30T07:35:39;15.50;98.50
53073;DHT22;38955;48.916;2.336;2023-09-30T07:37:41;15.40;98.50
53073;DHT22;38955;48.916;2.336;2023-09-30T07:39:45;15.50;98.60
53073;DHT22;38955;48.916;2.336;2023-09-30T07:41:47;15.60;98.70
53073;DHT22;38955;48.916;2.336;2023-09-30T07:43:50;15.70;98.60
53073;DHT22;38955;48.916;2.336;2023-09-30T07:45:52;15.70;98.30
53073;DHT22;38955;48.916;2.336;2023-09-30T07:47:54;15.70;98.60
53073;DHT22;38955;48.916;2.336;2023-09-30T07:49:56;15.80;98.40
53073;DHT22;38955;48.916;2.336;2023-09-30T07:51:59;15.80;98.30
53073;DHT22;38955;48.916;2.336;2023-09-30T07:54:01;15.90;98.40
53073;DHT22;38955;48.916;2.336;2023-09-30T07:56:24;15.90;98.50
53073;DHT22;38955;48.916;2.336;2023-09-30T07:58:27;16.00;98.10
53073;DHT22;38955;48.916;2.336;2023-09-30T08:00:29;16.10;98.30
53073;DHT22;38955;48.916;2.336;2023-09-30T08:02:31;16.00;98.10
53073;DHT22;38955;48.916;2.336;2023-09-30T08:04:36;16.10;98.50
53073;DHT22;38955;48.916;2.336;2023-09-30T08:06:38;16.20;98.60
53073;DHT22;38955;48.916;2.336;2023-09-30T08:08:41;16.20;98.10
53073;DHT22;38955;48.916;2.336;2023-09-30T08:10:44;16.30;98.10
53073;DHT22;38955;48.916;2.336;2023-09-30T08:12:47;16.30;98.20
53073;DHT22;38955;48.916;2.336;2023-09-30T08:14:52;16.40;98.20
53073;DHT22;38955;48.916;2.336;2023-09-30T08:16:55;16.50;98.10
53073;DHT22;38955;48.916;2.336;2023-09-30T08:18:57;16.50;98.00
53073;DHT22;38955;48.916;2.336;2023-09-30T08:20:59;16.50;98.10
53073;DHT22;38955;48.916;2.336;2023-09-30T08:23:02;16.50;97.90
53073;DHT22;38955;48.916;2.336;2023-09-30T08:25:06;16.60;98.00
53073;DHT22;38955;48.916;2.336;2023-09-30T08:27:08;16.50;97.90
53073;DHT22;38955;48.916;2.336;2023-09-30T08:29:12;16.50;98.00
53073;DHT22;38955;48.916;2.336;2023-09-30T08:31:14;16.60;97.90
53073;DHT22;38955;48.916;2.336;2023-09-30T08:33:16;16.60;97.90
53073;DHT22;38955;48.916;2.336;2023-09-30T08:35:18;16.70;97.70
53073;DHT22;38955;48.916;2.336;2023-09-30T08:37:21;16.80;97.80
53073;DHT22;38955;48.916;2.336;2023-09-30T08:39:23;16.80;97.60
53073;DHT22;38955;48.916;2.336;2023-09-30T08:41:31;16.80;97.60
53073;DHT22;38955;48.916;2.336;2023-09-30T08:43:37;16.80;97.60
53073;DHT22;38955;48.916;2.336;2023-09-30T08:45:44;16.90;97.70
53073;DHT22;38955;48.916;2.336;2023-09-30T08:47:52;16.90;97.60
53073;DHT22;38955;48.916;2.336;2023-09-30T08:49:54;16.90;97.80
53073;DHT22;38955;48.916;2.336;2023-09-30T08:52:00;16.80;97.50
53073;DHT22;38955;48.916;2.336;2023-09-30T08:54:04;17.00;97.60
53073;DHT22;38955;48.916;2.336;2023-09-30T08:56:08;17.00;97.30
53073;DHT22;38955;48.916;2.336;2023-09-30T08:58:12;17.10;97.40
53073;DHT22;38955;48.916;2.336;2023-09-30T09:00:15;17.20;97.20
53073;DHT22;38955;48.916;2.336;2023-09-30T09:02:19;17.30;97.20
53073;DHT22;38955;48.916;2.336;2023-09-30T09:04:21;17.30;97.10
53073;DHT22;38955;48.916;2.336;2023-09-30T09:06:25;17.30;97.00
53073;DHT22;38955;48.916;2.336;2023-09-30T09:08:27;17.30;97.00
53073;DHT22;38955;48.916;2.336;2023-09-30T09:10:29;17.30;97.60
53073;DHT22;38955;48.916;2.336;2023-09-30T09:12:34;17.30;97.70
53073;DHT22;38955;48.916;2.336;2023-09-30T09:14:36;17.40;97.80
53073;DHT22;38955;48.916;2.336;2023-09-30T09:16:51;17.50;97.60
53073;DHT22;38955;48.916;2.336;2023-09-30T09:18:56;17.60;97.50
53073;DHT22;38955;48.916;2.336;2023-09-30T09:21:09;17.70;97.10
53073;DHT22;38955;48.916;2.336;2023-09-30T09:23:15;17.60;97.10
53073;DHT22;38955;48.916;2.336;2023-09-30T09:25:17;17.70;97.20
53073;DHT22;38955;48.916;2.336;2023-09-30T09:27:19;17.80;97.40
53073;DHT22;38955;48.916;2.336;2023-09-30T09:29:25;18.00;96.60
53073;DHT22;38955;48.916;2.336;2023-09-30T09:31:31;18.00;96.90
53073;DHT22;38955;48.916;2.336;2023-09-30T09:33:36;18.20;96.70
53073;DHT22;38955;48.916;2.336;2023-09-30T09:35:40;18.20;96.20
53073;DHT22;38955;48.916;2.336;2023-09-30T09:37:43;18.40;96.40
53073;DHT22;38955;48.916;2.336;2023-09-30T09:39:56;18.40;95.70
53073;DHT22;38955;48.916;2.336;2023-09-30T09:41:59;18.50;95.80
53073;DHT22;38955;48.916;2.336;2023-09-30T09:44:05;18.40;95.10
53073;DHT22;38955;48.916;2.336;2023-09-30T09:46:08;18.50;95.80
53073;DHT22;38955;48.916;2.336;2023-09-30T09:48:11;18.50;95.40
53073;DHT22;38955;48.916;2.336;2023-09-30T09:50:13;18.60;95.00
53073;DHT22;38955;48.916;2.336;2023-09-30T09:52:18;18.60;95.10
53073;DHT22;38955;48.916;2.336;2023-09-30T09:54:21;18.70;95.20
53073;DHT22;38955;48.916;2.336;2023-09-30T09:56:25;18.80;95.20
53073;DHT22;38955;48.916;2.336;2023-09-30T09:58:27;18.90;94.80
53073;DHT22;38955;48.916;2.336;2023-09-30T10:00:33;18.90;94.80
53073;DHT22;38955;48.916;2.336;2023-09-30T10:02:39;19.00;94.70
53073;DHT22;38955;48.916;2.336;2023-09-30T10:04:42;19.00;94.70
53073;DHT22;38955;48.916;2.336;2023-09-30T10:06:48;19.00;94.50
53073;DHT22;38955;48.916;2.336;2023-09-30T10:08:55;19.00;95.10
53073;DHT22;38955;48.916;2.336;2023-09-30T10:11:01;19.10;94.70
53073;DHT22;38955;48.916;2.336;2023-09-30T10:13:03;19.20;94.80
53073;DHT22;38955;48.916;2.336;2023-09-30T10:15:39;19.30;94.70
53073;DHT22;38955;48.916;2.336;2023-09-30T10:17:58;19.40;94.50
53073;DHT22;38955;48.916;2.336;2023-09-30T10:20:05;19.40;94.20
53073;DHT22;38955;48.916;2.336;2023-09-30T10:22:21;19.40;94.50
53073;DHT22;38955;48.916;2.336;2023-09-30T10:24:31;19.30;94.00
53073;DHT22;38955;48.916;2.336;2023-09-30T10:26:33;19.30;94.30
53073;DHT22;38955;48.916;2.336;2023-09-30T10:28:41;19.30;94.20
53073;DHT22;38955;48.916;2.336;2023-09-30T10:33:27;19.50;94.30
53073;DHT22;38955;48.916;2.336;2023-09-30T10:35:45;19.50;94.30
53073;DHT22;38955;48.916;2.336;2023-09-30T10:37:48;19.70;94.10
53073;DHT22;38955;48.916;2.336;2023-09-30T10:39:56;19.80;94.00
53073;DHT22;38955;48.916;2.336;2023-09-30T10:41:58;19.90;93.50
53073;DHT22;38955;48.916;2.336;2023-09-30T10:44:32;20.00;93.50
53073;DHT22;38955;48.916;2.336;2023-09-30T10:46:34;20.10;93.50
53073;DHT22;38955;48.916;2.336;2023-09-30T10:48:37;20.20;93.30
53073;DHT22;38955;48.916;2.336;2023-09-30T10:50:58;20.20;93.20
53073;DHT22;38955;48.916;2.336;2023-09-30T10:53:04;20.30;93.00
53073;DHT22;38955;48.916;2.336;2023-09-30T10:55:09;20.30;92.80
53073;DHT22;38955;48.916;2.336;2023-09-30T10:57:11;20.30;92.80
53073;DHT22;38955;48.916;2.336;2023-09-30T10:59:18;20.30;92.70
53073;DHT22;38955;48.916;2.336;2023-09-30T11:01:22;20.30;92.10
53073;DHT22;38955;48.916;2.336;2023-09-30T11:03:25;20.30;92.30
53073;DHT22;38955;48.916;2.336;2023-09-30T11:05:27;20.20;92.20
53073;DHT22;38955;48.916;2.336;2023-09-30T11:07:50;20.20;92.60
53073;DHT22;38955;48.916;2.336;2023-09-30T11:09:54;20.20;92.80
53073;DHT22;38955;48.916;2.336;2023-09-30T11:11:59;20.20;92.90
53073;DHT22;38955;48.916;2.336;2023-09-30T11:14:01;20.20;92.60
53073;DHT22;38955;48.916;2.336;2023-09-30T11:16:04;20.20;92.60
53073;DHT22;38955;48.916;2.336;2023-09-30T11:18:14;20.20;92.70
53073;DHT22;38955;48.916;2.336;2023-09-30T11:20:17;20.20;92.70
53073;DHT22;38955;48.916;2.336;2023-09-30T11:22:20;20.30;92.70
53073;DHT22;38955;48.916;2.336;2023-09-30T11:24:23;20.40;92.30
53073;DHT22;38955;48.916;2.336;2023-09-30T11:26:29;20.50;92.30
53073;DHT22;38955;48.916;2.336;2023-09-30T11:28:39;20.50;92.10
53073;DHT22;38955;48.916;2.336;2023-09-30T11:30:55;20.70;92.20
53073;DHT22;38955;48.916;2.336;2023-09-30T11:32:58;20.60;91.40
53073;DHT22;38955;48.916;2.336;2023-09-30T11:35:02;20.60;91.70
53073;DHT22;38955;48.916;2.336;2023-09-30T11:37:04;20.70;91.40
53073;DHT22;38955;48.916;2.336;2023-09-30T11:39:08;20.70;91.70
53073;DHT22;38955;48.916;2.336;2023-09-30T11:41:11;20.60;92.00
53073;DHT22;38955;48.916;2.336;2023-09-30T11:43:13;20.50;92.20
53073;DHT22;38955;48.916;2.336;2023-09-30T11:45:20;20.50;92.30
53073;DHT22;38955;48.916;2.336;2023-09-30T11:47:31;20.50;92.50
53073;DHT22;38955;48.916;2.336;2023-09-30T11:49:36;20.50;92.60
53073;DHT22;38955;48.916;2.336;2023-09-30T11:51:43;20.50;92.60
53073;DHT22;38955;48.916;2.336;2023-09-30T11:53:49;20.60;92.60
53073;DHT22;38955;48.916;2.336;2023-09-30T11:55:52;20.70;92.50
53073;DHT22;38955;48.916;2.336;2023-09-30T11:57:57;20.60;91.90
53073;DHT22;38955;48.916;2.336;2023-09-30T12:00:00;20.60;92.40
53073;DHT22;38955;48.916;2.336;2023-09-30T12:02:04;20.60;92.20
53073;DHT22;38955;48.916;2.336;2023-09-30T12:04:15;20.60;92.00
53073;DHT22;38955;48.916;2.336;2023-09-30T12:06:19;20.60;92.20
53073;DHT22;38955;48.916;2.336;2023-09-30T12:08:21;20.70;92.20
53073;DHT22;38955;48.916;2.336;2023-09-30T12:10:24;20.80;92.10
53073;DHT22;38955;48.916;2.336;2023-09-30T12:12:27;20.90;92.00
53073;DHT22;38955;48.916;2.336;2023-09-30T12:14:30;21.00;91.90
53073;DHT22;38955;48.916;2.336;2023-09-30T12:16:33;21.10;92.20
53073;DHT22;38955;48.916;2.336;2023-09-30T12:18:37;21.00;92.00
53073;DHT22;38955;48.916;2.336;2023-09-30T12:20:40;21.10;92.10
53073;DHT22;38955;48.916;2.336;2023-09-30T12:22:43;21.10;91.80
53073;DHT22;38955;48.916;2.336;2023-09-30T12:24:45;21.10;91.60
53073;DHT22;38955;48.916;2.336;2023-09-30T12:26:49;21.10;91.90
53073;DHT22;38955;48.916;2.336;2023-09-30T12:28:52;21.10;91.80
53073;DHT22;38955;48.916;2.336;2023-09-30T12:30:54;21.20;92.00
53073;DHT22;38955;48.916;2.336;2023-09-30T12:32:57;21.20;91.80
53073;DHT22;38955;48.916;2.336;2023-09-30T12:35:00;21.20;91.80
53073;DHT22;38955;48.916;2.336;2023-09-30T12:37:02;21.20;91.80
53073;DHT22;38955;48.916;2.336;2023-09-30T12:39:05;21.30;92.00
53073;DHT22;38955;48.916;2.336;2023-09-30T12:41:13;21.20;91.80
53073;DHT22;38955;48.916;2.336;2023-09-30T12:43:15;21.20;92.00
53073;DHT22;38955;48.916;2.336;2023-09-30T12:45:18;21.30;92.20
53073;DHT22;38955;48.916;2.336;2023-09-30T12:47:20;21.30;92.10
53073;DHT22;38955;48.916;2.336;2023-09-30T12:49:22;21.30;91.90
53073;DHT22;38955;48.916;2.336;2023-09-30T12:51:25;21.30;92.00
53073;DHT22;38955;48.916;2.336;2023-09-30T12:53:27;21.40;91.80
53073;DHT22;38955;48.916;2.336;2023-09-30T12:55:29;21.30;91.50
53073;DHT22;38955;48.916;2.336;2023-09-30T12:57:32;21.30;91.70
53073;DHT22;38955;48.916;2.336;2023-09-30T12:59:35;21.20;91.50
53073;DHT22;38955;48.916;2.336;2023-09-30T13:01:37;21.30;91.80
53073;DHT22;38955;48.916;2.336;2023-09-30T13:03:39;21.30;91.80
53073;DHT22;38955;48.916;2.336;2023-09-30T13:05:42;21.30;91.60